sensor_id;sensor_type;location;lat;lon;timestamp;pressure;altitude;pressure_sealevel;temperature;humidity
59103;BME280;43999;51.660;5.616;2022-07-06T00:01:20;102366.53;;;13.09;83.11
59103;BME280;43999;51.660;5.616;2022-07-06T00:03:47;102370.16;;;13.07;82.12
59103;BME280;43999;51.660;5.616;2022-07-06T00:06:21;102374.50;;;13.08;83.48
59103;BME280;43999;51.660;5.616;2022-07-06T00:08:49;102365.81;;;13.06;82.90
59103;BME280;43999;51.660;5.616;2022-07-06T00:11:17;102372.91;;;13.04;83.87
59103;BME280;43999;51.660;5.616;2022-07-06T00:13:44;102371.28;;;13.01;82.91
59103;BME280;43999;51.660;5.616;2022-07-06T00:16:11;102370.50;;;12.98;83.31
59103;BME280;43999;51.660;5.616;2022-07-06T00:18:39;102370.69;;;12.93;84.19
59103;BME280;43999;51.660;5.616;2022-07-06T00:21:07;102377.00;;;12.89;83.72
59103;BME280;43999;51.660;5.616;2022-07-06T00:23:34;102376.25;;;12.85;84.99
59103;BME280;43999;51.660;5.616;2022-07-06T00:26:01;102378.94;;;12.84;85.93
59103;BME280;43999;51.660;5.616;2022-07-06T00:28:29;102386.94;;;12.81;85.85
59103;BME280;43999;51.660;5.616;2022-07-06T00:30:56;102382.75;;;12.77;85.63
59103;BME280;43999;51.660;5.616;2022-07-06T00:33:24;102384.63;;;12.73;84.67
59103;BME280;43999;51.660;5.616;2022-07-06T00:35:51;102380.41;;;12.69;86.58
59103;BME280;43999;51.660;5.616;2022-07-06T00:38:19;102383.22;;;12.64;86.73
59103;BME280;43999;51.660;5.616;2022-07-06T00:40:47;102376.22;;;12.63;85.81
59103;BME280;43999;51.660;5.616;2022-07-06T00:43:15;102374.50;;;12.62;88.17
59103;BME280;43999;51.660;5.616;2022-07-06T00:45:42;102371.88;;;12.62;88.64
59103;BME280;43999;51.660;5.616;2022-07-06T00:48:10;102369.31;;;12.61;89.93
59103;BME280;43999;51.660;5.616;2022-07-06T00:50:39;102376.41;;;12.59;88.65
59103;BME280;43999;51.660;5.616;2022-07-06T00:53:07;102366.91;;;12.54;89.32
59103;BME280;43999;51.660;5.616;2022-07-06T00:55:38;102371.38;;;12.52;88.68
59103;BME280;43999;51.660;5.616;2022-07-06T00:58:07;102374.13;;;12.49;89.69
59103;BME280;43999;51.660;5.616;2022-07-06T01:00:36;102368.06;;;12.47;90.17
59103;BME280;43999;51.660;5.616;2022-07-06T01:03:03;102369.88;;;12.45;91.17
59103;BME280;43999;51.660;5.616;2022-07-06T01:05:31;102370.00;;;12.42;91.34
59103;BME280;43999;51.660;5.616;2022-07-06T01:07:58;102369.19;;;12.40;91.31
59103;BME280;43999;51.660;5.616;2022-07-06T01:10:27;102378.00;;;12.39;91.02
59103;BME280;43999;51.660;5.616;2022-07-06T01:12:55;102378.06;;;12.37;91.73
59103;BME280;43999;51.660;5.616;2022-07-06T01:15:24;102367.69;;;12.33;90.73
59103;BME280;43999;51.660;5.616;2022-07-06T01:17:52;102369.53;;;12.31;91.90
59103;BME280;43999;51.660;5.616;2022-07-06T01:20:26;102365.25;;;12.28;92.20
59103;BME280;43999;51.660;5.616;2022-07-06T01:22:54;102368.00;;;12.25;93.52
59103;BME280;43999;51.660;5.616;2022-07-06T01:25:23;102362.03;;;12.20;92.60
59103;BME280;43999;51.660;5.616;2022-07-06T01:27:50;102371.78;;;12.18;93.40
59103;BME280;43999;51.660;5.616;2022-07-06T01:30:18;102372.72;;;12.15;92.94
59103;BME280;43999;51.660;5.616;2022-07-06T01:32:46;102375.41;;;12.14;93.55
59103;BME280;43999;51.660;5.616;2022-07-06T01:35:15;102378.88;;;12.14;93.28
59103;BME280;43999;51.660;5.616;2022-07-06T01:37:43;102370.22;;;12.12;94.11
59103;BME280;43999;51.660;5.616;2022-07-06T01:40:11;102369.38;;;12.12;95.02
59103;BME280;43999;51.660;5.616;2022-07-06T01:42:39;102367.69;;;12.09;94.42
59103;BME280;43999;51.660;5.616;2022-07-06T01:45:07;102364.31;;;12.06;95.62
59103;BME280;43999;51.660;5.616;2022-07-06T01:47:37;102358.31;;;12.02;95.26
59103;BME280;43999;51.660;5.616;2022-07-06T01:50:06;102362.75;;;12.00;94.90
59103;BME280;43999;51.660;5.616;2022-07-06T01:52:39;102362.03;;;11.96;95.38
59103;BME280;43999;51.660;5.616;2022-07-06T01:55:06;102373.53;;;11.92;95.23
59103;BME280;43999;51.660;5.616;2022-07-06T01:57:35;102372.72;;;11.90;95.10
59103;BME280;43999;51.660;5.616;2022-07-06T02:00:06;102371.94;;;11.87;95.96
59103;BME280;43999;51.660;5.616;2022-07-06T02:02:45;102371.16;;;11.84;96.91
59103;BME280;43999;51.660;5.616;2022-07-06T02:05:12;102373.03;;;11.81;95.90
59103;BME280;43999;51.660;5.616;2022-07-06T02:07:40;102371.41;;;11.77;97.85
59103;BME280;43999;51.660;5.616;2022-07-06T02:10:09;102368.94;;;11.72;96.93
59103;BME280;43999;51.660;5.616;2022-07-06T02:12:36;102366.38;;;11.71;98.23
59103;BME280;43999;51.660;5.616;2022-07-06T02:15:03;102364.78;;;11.66;97.62
59103;BME280;43999;51.660;5.616;2022-07-06T02:17:31;102368.31;;;11.65;97.83
59103;BME280;43999;51.660;5.616;2022-07-06T02:19:58;102369.25;;;11.63;97.85
59103;BME280;43999;51.660;5.616;2022-07-06T02:22:25;102385.06;;;11.61;97.71
59103;BME280;43999;51.660;5.616;2022-07-06T02:24:52;102381.63;;;11.59;97.42
59103;BME280;43999;51.660;5.616;2022-07-06T02:27:25;102381.69;;;11.58;98.44
59103;BME280;43999;51.660;5.616;2022-07-06T02:29:56;102391.44;;;11.54;97.83
59103;BME280;43999;51.660;5.616;2022-07-06T02:32:26;102380.16;;;11.51;99.39
59103;BME280;43999;51.660;5.616;2022-07-06T02:34:53;102376.75;;;11.48;98.99
59103;BME280;43999;51.660;5.616;2022-07-06T02:37:20;102374.13;;;11.48;99.68
59103;BME280;43999;51.660;5.616;2022-07-06T02:39:47;102375.03;;;11.47;97.90
59103;BME280;43999;51.660;5.616;2022-07-06T02:42:15;102374.22;;;11.45;98.00
59103;BME280;43999;51.660;5.616;2022-07-06T02:44:42;102364.63;;;11.44;98.00
59103;BME280;43999;51.660;5.616;2022-07-06T02:47:09;102374.28;;;11.44;99.61
59103;BME280;43999;51.660;5.616;2022-07-06T02:49:37;102378.72;;;11.42;100.00
59103;BME280;43999;51.660;5.616;2022-07-06T02:52:04;102368.31;;;11.39;98.64
59103;BME280;43999;51.660;5.616;2022-07-06T02:54:32;102366.66;;;11.36;99.42
59103;BME280;43999;51.660;5.616;2022-07-06T02:56:59;102373.78;;;11.33;99.61
59103;BME280;43999;51.660;5.616;2022-07-06T02:59:26;102376.50;;;11.29;98.89
59103;BME280;43999;51.660;5.616;2022-07-06T03:01:54;102375.66;;;11.27;100.00
59103;BME280;43999;51.660;5.616;2022-07-06T03:04:21;102379.22;;;11.26;100.00
59103;BME280;43999;51.660;5.616;2022-07-06T03:06:49;102374.06;;;11.23;99.79
59103;BME280;43999;51.660;5.616;2022-07-06T03:09:16;102380.22;;;11.22;100.00
59103;BME280;43999;51.660;5.616;2022-07-06T03:11:43;102378.50;;;11.21;100.00
59103;BME280;43999;51.660;5.616;2022-07-06T03:14:10;102382.84;;;11.22;100.00
59103;BME280;43999;51.660;5.616;2022-07-06T03:16:41;102384.63;;;11.22;100.00
59103;BME280;43999;51.660;5.616;2022-07-06T03:19:14;102382.75;;;11.25;100.00
59103;BME280;43999;51.660;5.616;2022-07-06T03:21:41;102393.09;;;11.30;100.00
59103;BME280;43999;51.660;5.616;2022-07-06T03:24:09;102386.91;;;11.33;100.00
59103;BME280;43999;51.660;5.616;2022-07-06T03:26:36;102384.19;;;11.36;100.00
59103;BME280;43999;51.660;5.616;2022-07-06T03:29:03;102381.50;;;11.37;100.00
59103;BME280;43999;51.660;5.616;2022-07-06T03:31:30;102392.78;;;11.39;100.00
59103;BME280;43999;51.660;5.616;2022-07-06T03:33:58;102389.22;;;11.42;100.00
59103;BME280;43999;51.660;5.616;2022-07-06T03:36:26;102388.25;;;11.44;100.00
59103;BME280;43999;51.660;5.616;2022-07-06T03:38:53;102381.19;;;11.46;100.00
59103;BME280;43999;51.660;5.616;2022-07-06T03:41:22;102389.81;;;11.50;100.00
59103;BME280;43999;51.660;5.616;2022-07-06T03:43:49;102390.66;;;11.51;100.00
59103;BME280;43999;51.660;5.616;2022-07-06T03:46:16;102389.81;;;11.50;100.00
59103;BME280;43999;51.660;5.616;2022-07-06T03:48:44;102392.41;;;11.52;100.00
59103;BME280;43999;51.660;5.616;2022-07-06T03:51:12;102387.03;;;11.55;100.00
59103;BME280;43999;51.660;5.616;2022-07-06T03:53:39;102386.91;;;11.59;100.00
59103;BME280;43999;51.660;5.616;2022-07-06T03:56:07;102378.97;;;11.61;100.00
59103;BME280;43999;51.660;5.616;2022-07-06T03:58:55;102385.00;;;11.63;100.00
59103;BME280;43999;51.660;5.616;2022-07-06T04:01:24;102385.06;;;11.61;100.00
59103;BME280;43999;51.660;5.616;2022-07-06T04:03:51;102387.75;;;11.60;100.00
59103;BME280;43999;51.660;5.616;2022-07-06T04:06:19;102392.16;;;11.59;100.00
59103;BME280;43999;51.660;5.616;2022-07-06T04:08:46;102393.00;;;11.60;100.00
59103;BME280;43999;51.660;5.616;2022-07-06T04:11:14;102391.25;;;11.60;100.00
59103;BME280;43999;51.660;5.616;2022-07-06T04:13:42;102386.75;;;11.64;100.00
59103;BME280;43999;51.660;5.616;2022-07-06T04:16:09;102392.84;;;11.64;100.00
59103;BME280;43999;51.660;5.616;2022-07-06T04:18:36;102391.09;;;11.65;100.00
59103;BME280;43999;51.660;5.616;2022-07-06T04:21:06;102384.06;;;11.65;100.00
59103;BME280;43999;51.660;5.616;2022-07-06T04:23:35;102378.88;;;11.64;100.00
59103;BME280;43999;51.660;5.616;2022-07-06T04:26:04;102378.88;;;11.64;100.00
59103;BME280;43999;51.660;5.616;2022-07-06T04:28:34;102385.00;;;11.63;100.00
59103;BME280;43999;51.660;5.616;2022-07-06T04:31:01;102377.19;;;11.61;100.00
59103;BME280;43999;51.660;5.616;2022-07-06T04:33:29;102381.50;;;11.64;100.00
59103;BME280;43999;51.660;5.616;2022-07-06T04:35:57;102378.81;;;11.65;100.00
59103;BME280;43999;51.660;5.616;2022-07-06T04:38:31;102373.41;;;11.70;100.00
59103;BME280;43999;51.660;5.616;2022-07-06T04:41:02;102380.22;;;11.76;100.00
59103;BME280;43999;51.660;5.616;2022-07-06T04:43:30;102379.13;;;11.81;100.00
59103;BME280;43999;51.660;5.616;2022-07-06T04:45:57;102379.91;;;11.85;100.00
59103;BME280;43999;51.660;5.616;2022-07-06T04:48:25;102373.63;;;11.89;100.00
59103;BME280;43999;51.660;5.616;2022-07-06T04:50:53;102376.13;;;11.94;100.00
59103;BME280;43999;51.660;5.616;2022-07-06T04:53:25;102371.53;;;11.99;100.00
59103;BME280;43999;51.660;5.616;2022-07-06T04:55:53;102370.59;;;12.01;100.00
59103;BME280;43999;51.660;5.616;2022-07-06T04:58:21;102373.16;;;12.03;100.00
59103;BME280;43999;51.660;5.616;2022-07-06T05:00:49;102374.88;;;12.04;100.00
59103;BME280;43999;51.660;5.616;2022-07-06T05:03:16;102381.72;;;12.08;100.00
59103;BME280;43999;51.660;5.616;2022-07-06T05:05:44;102385.13;;;12.12;100.00
59103;BME280;43999;51.660;5.616;2022-07-06T05:08:11;102382.38;;;12.15;100.00
59103;BME280;43999;51.660;5.616;2022-07-06T05:10:39;102383.88;;;12.22;100.00
59103;BME280;43999;51.660;5.616;2022-07-06T05:13:07;102386.22;;;12.30;100.00
59103;BME280;43999;51.660;5.616;2022-07-06T05:15:34;102395.78;;;12.32;100.00
59103;BME280;43999;51.660;5.616;2022-07-06T05:18:01;102393.94;;;12.34;100.00
59103;BME280;43999;51.660;5.616;2022-07-06T05:20:29;102386.81;;;12.38;100.00
59103;BME280;43999;51.660;5.616;2022-07-06T05:22:56;102397.16;;;12.43;100.00
59103;BME280;43999;51.660;5.616;2022-07-06T05:25:28;102399.72;;;12.44;100.00
59103;BME280;43999;51.660;5.616;2022-07-06T05:27:56;102409.19;;;12.48;100.00
59103;BME280;43999;51.660;5.616;2022-07-06T05:30:25;102410.75;;;12.54;100.00
59103;BME280;43999;51.660;5.616;2022-07-06T05:32:53;102402.75;;;12.57;100.00
59103;BME280;43999;51.660;5.616;2022-07-06T05:35:20;102400.19;;;12.55;100.00
59103;BME280;43999;51.660;5.616;2022-07-06T05:38:07;102397.59;;;12.54;100.00
59103;BME280;43999;51.660;5.616;2022-07-06T05:40:35;102395.81;;;12.54;100.00
59103;BME280;43999;51.660;5.616;2022-07-06T05:43:02;102398.28;;;12.59;100.00
59103;BME280;43999;51.660;5.616;2022-07-06T05:45:29;102401.69;;;12.63;100.00
59103;BME280;43999;51.660;5.616;2022-07-06T05:47:57;102404.19;;;12.66;100.00
59103;BME280;43999;51.660;5.616;2022-07-06T05:50:43;102401.28;;;12.73;100.00
59103;BME280;43999;51.660;5.616;2022-07-06T05:53:10;102398.41;;;12.80;100.00
59103;BME280;43999;51.660;5.616;2022-07-06T05:55:47;102413.84;;;12.89;100.00
59103;BME280;43999;51.660;5.616;2022-07-06T05:58:15;102412.66;;;12.96;100.00
59103;BME280;43999;51.660;5.616;2022-07-06T06:00:44;102410.56;;;13.06;100.00
59103;BME280;43999;51.660;5.616;2022-07-06T06:03:16;102408.34;;;13.17;100.00
59103;BME280;43999;51.660;5.616;2022-07-06T06:05:44;102407.03;;;13.27;100.00
59103;BME280;43999;51.660;5.616;2022-07-06T06:08:13;102411.19;;;13.35;100.00
59103;BME280;43999;51.660;5.616;2022-07-06T06:10:40;102409.97;;;13.43;99.86
59103;BME280;43999;51.660;5.616;2022-07-06T06:13:11;102412.28;;;13.51;99.75
59103;BME280;43999;51.660;5.616;2022-07-06T06:15:40;102412.75;;;13.61;100.00
59103;BME280;43999;51.660;5.616;2022-07-06T06:18:07;102410.56;;;13.71;99.91
59103;BME280;43999;51.660;5.616;2022-07-06T06:20:34;102418.84;;;13.84;99.46
59103;BME280;43999;51.660;5.616;2022-07-06T06:23:02;102407.66;;;13.99;99.38
59103;BME280;43999;51.660;5.616;2022-07-06T06:25:38;102414.56;;;14.22;99.03
59103;BME280;43999;51.660;5.616;2022-07-06T06:28:07;102410.06;;;14.43;97.40
59103;BME280;43999;51.660;5.616;2022-07-06T06:30:37;102416.34;;;14.61;95.35
59103;BME280;43999;51.660;5.616;2022-07-06T06:35:52;102413.41;;;14.86;92.63
59103;BME280;43999;51.660;5.616;2022-07-06T06:38:22;102417.41;;;14.95;92.03
59103;BME280;43999;51.660;5.616;2022-07-06T06:40:54;102415.25;;;15.03;90.95
59103;BME280;43999;51.660;5.616;2022-07-06T06:43:21;102416.69;;;15.11;90.56
59103;BME280;43999;51.660;5.616;2022-07-06T06:46:00;102414.59;;;15.17;89.46
59103;BME280;43999;51.660;5.616;2022-07-06T06:48:27;102411.59;;;15.25;89.30
59103;BME280;43999;51.660;5.616;2022-07-06T06:50:55;102410.44;;;15.31;89.55
59103;BME280;43999;51.660;5.616;2022-07-06T06:53:22;102413.63;;;15.37;89.68
59103;BME280;43999;51.660;5.616;2022-07-06T06:55:49;102418.47;;;15.47;89.08
59103;BME280;43999;51.660;5.616;2022-07-06T06:58:16;102411.88;;;15.55;89.15
59103;BME280;43999;51.660;5.616;2022-07-06T07:00:44;102421.97;;;15.65;86.69
59103;BME280;43999;51.660;5.616;2022-07-06T07:03:11;102421.53;;;15.74;86.27
59103;BME280;43999;51.660;5.616;2022-07-06T07:05:38;102434.91;;;15.88;85.88
59103;BME280;43999;51.660;5.616;2022-07-06T07:08:05;102423.94;;;15.96;84.74
59103;BME280;43999;51.660;5.616;2022-07-06T07:10:32;102426.28;;;16.02;83.14
59103;BME280;43999;51.660;5.616;2022-07-06T07:13:00;102437.47;;;16.07;83.56
59103;BME280;43999;51.660;5.616;2022-07-06T07:15:27;102428.44;;;16.11;83.72
59103;BME280;43999;51.660;5.616;2022-07-06T07:17:54;102426.41;;;16.17;81.91
59103;BME280;43999;51.660;5.616;2022-07-06T07:20:22;102434.94;;;16.22;79.67
59103;BME280;43999;51.660;5.616;2022-07-06T07:22:49;102431.53;;;16.20;79.48
59103;BME280;43999;51.660;5.616;2022-07-06T07:25:16;102425.41;;;16.19;79.46
59103;BME280;43999;51.660;5.616;2022-07-06T07:27:43;102430.59;;;16.21;79.74
59103;BME280;43999;51.660;5.616;2022-07-06T07:30:11;102427.72;;;16.25;78.81
59103;BME280;43999;51.660;5.616;2022-07-06T07:32:38;102443.97;;;16.35;78.05
59103;BME280;43999;51.660;5.616;2022-07-06T07:35:09;102433.13;;;16.40;77.45
59103;BME280;43999;51.660;5.616;2022-07-06T07:37:36;102427.00;;;16.39;77.25
59103;BME280;43999;51.660;5.616;2022-07-06T07:40:04;102434.59;;;16.45;76.89
59103;BME280;43999;51.660;5.616;2022-07-06T07:42:32;102429.16;;;16.48;76.44
59103;BME280;43999;51.660;5.616;2022-07-06T07:44:59;102433.41;;;16.51;75.74
59103;BME280;43999;51.660;5.616;2022-07-06T07:47:27;102425.13;;;16.57;74.79
59103;BME280;43999;51.660;5.616;2022-07-06T07:49:54;102430.19;;;16.62;75.02
59103;BME280;43999;51.660;5.616;2022-07-06T07:52:21;102426.28;;;16.69;73.63
59103;BME280;43999;51.660;5.616;2022-07-06T07:54:48;102436.44;;;16.77;72.00
59103;BME280;43999;51.660;5.616;2022-07-06T07:57:36;102420.00;;;16.88;72.64
59103;BME280;43999;51.660;5.616;2022-07-06T08:00:04;102419.47;;;17.13;71.21
59103;BME280;43999;51.660;5.616;2022-07-06T08:02:37;102421.81;;;17.49;69.82
59103;BME280;43999;51.660;5.616;2022-07-06T08:05:05;102421.97;;;17.92;68.78
59103;BME280;43999;51.660;5.616;2022-07-06T08:07:33;102415.38;;;18.28;68.42
59103;BME280;43999;51.660;5.616;2022-07-06T08:10:00;102416.72;;;18.77;68.13
59103;BME280;43999;51.660;5.616;2022-07-06T08:12:27;102415.81;;;19.20;63.61
59103;BME280;43999;51.660;5.616;2022-07-06T08:14:54;102422.47;;;19.53;62.64
59103;BME280;43999;51.660;5.616;2022-07-06T08:17:22;102415.72;;;19.75;61.06
59103;BME280;43999;51.660;5.616;2022-07-06T08:19:50;102423.31;;;19.81;61.18
59103;BME280;43999;51.660;5.616;2022-07-06T08:22:17;102416.09;;;20.09;61.86
59103;BME280;43999;51.660;5.616;2022-07-06T08:24:44;102414.34;;;20.59;57.66
59103;BME280;43999;51.660;5.616;2022-07-06T08:27:11;102414.31;;;21.09;55.38
59103;BME280;43999;51.660;5.616;2022-07-06T08:29:38;102421.34;;;21.34;53.68
59103;BME280;43999;51.660;5.616;2022-07-06T08:32:06;102408.03;;;21.45;52.44
59103;BME280;43999;51.660;5.616;2022-07-06T08:34:44;102416.66;;;21.73;53.32
59103;BME280;43999;51.660;5.616;2022-07-06T08:37:11;102407.03;;;22.06;53.02
59103;BME280;43999;51.660;5.616;2022-07-06T08:39:39;102404.13;;;22.43;47.19
59103;BME280;43999;51.660;5.616;2022-07-06T08:42:07;102406.78;;;22.43;46.73
59103;BME280;43999;51.660;5.616;2022-07-06T08:44:36;102404.13;;;22.54;47.43
59103;BME280;43999;51.660;5.616;2022-07-06T08:47:05;102400.94;;;22.72;46.37
59103;BME280;43999;51.660;5.616;2022-07-06T08:49:37;102401.78;;;22.84;45.46
59103;BME280;43999;51.660;5.616;2022-07-06T08:52:07;102396.63;;;22.92;44.14
59103;BME280;43999;51.660;5.616;2022-07-06T08:54:40;102392.34;;;23.12;42.24
59103;BME280;43999;51.660;5.616;2022-07-06T08:57:08;102388.19;;;23.19;43.15
59103;BME280;43999;51.660;5.616;2022-07-06T08:59:35;102397.13;;;23.30;43.91
59103;BME280;43999;51.660;5.616;2022-07-06T09:02:03;102393.81;;;23.37;44.47
59103;BME280;43999;51.660;5.616;2022-07-06T09:04:32;102390.34;;;23.47;43.86
59103;BME280;43999;51.660;5.616;2022-07-06T09:07:02;102386.94;;;23.23;44.81
59103;BME280;43999;51.660;5.616;2022-07-06T09:09:30;102393.53;;;23.08;42.66
59103;BME280;43999;51.660;5.616;2022-07-06T09:11:58;102385.88;;;22.71;42.54
59103;BME280;43999;51.660;5.616;2022-07-06T09:14:30;102390.25;;;22.72;43.33
59103;BME280;43999;51.660;5.616;2022-07-06T09:17:03;102387.28;;;22.86;43.25
59103;BME280;43999;51.660;5.616;2022-07-06T09:19:33;102393.34;;;23.00;42.31
59103;BME280;43999;51.660;5.616;2022-07-06T09:22:01;102394.69;;;22.94;42.20
59103;BME280;43999;51.660;5.616;2022-07-06T09:24:30;102398.97;;;22.85;42.26
59103;BME280;43999;51.660;5.616;2022-07-06T09:26:58;102391.41;;;22.90;43.73
59103;BME280;43999;51.660;5.616;2022-07-06T09:29:32;102399.78;;;23.08;42.61
59103;BME280;43999;51.660;5.616;2022-07-06T09:32:01;102394.56;;;22.96;42.50
59103;BME280;43999;51.660;5.616;2022-07-06T09:34:43;102390.59;;;22.79;42.09
59103;BME280;43999;51.660;5.616;2022-07-06T09:37:13;102403.59;;;22.72;40.63
59103;BME280;43999;51.660;5.616;2022-07-06T09:39:42;102404.19;;;22.87;39.45
59103;BME280;43999;51.660;5.616;2022-07-06T09:42:11;102396.00;;;23.00;39.26
59103;BME280;43999;51.660;5.616;2022-07-06T09:44:40;102405.47;;;23.15;39.87
59103;BME280;43999;51.660;5.616;2022-07-06T09:47:10;102400.03;;;23.38;41.45
59103;BME280;43999;51.660;5.616;2022-07-06T09:49:38;102401.06;;;23.47;40.24
59103;BME280;43999;51.660;5.616;2022-07-06T09:52:08;102405.25;;;23.39;38.27
59103;BME280;43999;51.660;5.616;2022-07-06T09:54:37;102403.88;;;23.45;38.07
59103;BME280;43999;51.660;5.616;2022-07-06T09:57:06;102402.63;;;23.49;39.37
59103;BME280;43999;51.660;5.616;2022-07-06T09:59:36;102415.81;;;23.41;38.42
59103;BME280;43999;51.660;5.616;2022-07-06T10:02:06;102410.31;;;23.21;38.91
59103;BME280;43999;51.660;5.616;2022-07-06T10:04:34;102422.88;;;22.98;39.67
59103;BME280;43999;51.660;5.616;2022-07-06T10:07:02;102415.00;;;22.74;40.50
59103;BME280;43999;51.660;5.616;2022-07-06T10:09:31;102408.47;;;22.55;40.71
59103;BME280;43999;51.660;5.616;2022-07-06T10:12:02;102411.53;;;22.40;40.03
59103;BME280;43999;51.660;5.616;2022-07-06T10:14:33;102411.41;;;22.30;41.15
59103;BME280;43999;51.660;5.616;2022-07-06T10:17:02;102413.34;;;22.28;40.87
59103;BME280;43999;51.660;5.616;2022-07-06T10:19:32;102415.38;;;22.24;41.51
59103;BME280;43999;51.660;5.616;2022-07-06T10:22:03;102418.28;;;22.21;40.15
59103;BME280;43999;51.660;5.616;2022-07-06T10:24:33;102414.28;;;22.04;39.82
59103;BME280;43999;51.660;5.616;2022-07-06T10:27:06;102411.72;;;21.91;40.77
59103;BME280;43999;51.660;5.616;2022-07-06T10:29:34;102416.47;;;21.99;40.52
59103;BME280;43999;51.660;5.616;2022-07-06T10:32:01;102417.19;;;21.90;40.83
59103;BME280;43999;51.660;5.616;2022-07-06T10:34:29;102413.03;;;21.74;41.03
59103;BME280;43999;51.660;5.616;2022-07-06T10:36:56;102414.22;;;21.70;41.64
59103;BME280;43999;51.660;5.616;2022-07-06T10:39:34;102411.19;;;21.63;41.90
59103;BME280;43999;51.660;5.616;2022-07-06T10:42:40;102408.91;;;21.46;41.88
59103;BME280;43999;51.660;5.616;2022-07-06T10:45:49;102401.84;;;21.34;41.49
59103;BME280;43999;51.660;5.616;2022-07-06T10:50:48;102408.59;;;21.51;42.25
59103;BME280;43999;51.660;5.616;2022-07-06T10:53:22;102407.56;;;21.64;40.77
59103;BME280;43999;51.660;5.616;2022-07-06T10:55:53;102406.97;;;21.72;40.67
59103;BME280;43999;51.660;5.616;2022-07-06T10:58:47;102412.19;;;21.85;41.43
59103;BME280;43999;51.660;5.616;2022-07-06T11:01:20;102401.56;;;22.08;41.47
59103;BME280;43999;51.660;5.616;2022-07-06T11:03:50;102404.22;;;22.19;40.76
59103;BME280;43999;51.660;5.616;2022-07-06T11:06:39;102396.09;;;22.20;40.04
59103;BME280;43999;51.660;5.616;2022-07-06T11:09:08;102396.94;;;22.21;39.96
59103;BME280;43999;51.660;5.616;2022-07-06T11:11:41;102402.03;;;22.24;39.29
59103;BME280;43999;51.660;5.616;2022-07-06T11:14:13;102400.72;;;22.30;39.68
59103;BME280;43999;51.660;5.616;2022-07-06T11:19:23;102399.00;;;22.29;39.87
59103;BME280;43999;51.660;5.616;2022-07-06T11:21:53;102398.53;;;22.35;38.63
59103;BME280;43999;51.660;5.616;2022-07-06T11:24:29;102392.50;;;22.33;39.69
59103;BME280;43999;51.660;5.616;2022-07-06T11:26:58;102396.44;;;22.27;39.11
59103;BME280;43999;51.660;5.616;2022-07-06T11:29:28;102397.69;;;22.23;39.99
59103;BME280;43999;51.660;5.616;2022-07-06T11:31:58;102395.88;;;22.35;41.39
59103;BME280;43999;51.660;5.616;2022-07-06T11:34:29;102383.25;;;22.48;39.80
59103;BME280;43999;51.660;5.616;2022-07-06T11:37:02;102387.25;;;22.43;39.64
59103;BME280;43999;51.660;5.616;2022-07-06T11:39:31;102385.06;;;22.36;39.52
59103;BME280;43999;51.660;5.616;2022-07-06T11:42:00;102378.78;;;22.37;40.22
59103;BME280;43999;51.660;5.616;2022-07-06T11:44:28;102373.16;;;22.52;39.57
59103;BME280;43999;51.660;5.616;2022-07-06T11:46:56;102372.38;;;22.72;40.97
59103;BME280;43999;51.660;5.616;2022-07-06T11:49:25;102370.97;;;23.01;40.15
59103;BME280;43999;51.660;5.616;2022-07-06T11:51:53;102365.22;;;23.17;39.36
59103;BME280;43999;51.660;5.616;2022-07-06T11:54:24;102359.03;;;23.16;38.98
59103;BME280;43999;51.660;5.616;2022-07-06T11:56:57;102361.22;;;23.11;37.74
59103;BME280;43999;51.660;5.616;2022-07-06T11:59:32;102365.28;;;22.94;38.13
59103;BME280;43999;51.660;5.616;2022-07-06T12:02:07;102355.13;;;22.77;39.54
59103;BME280;43999;51.660;5.616;2022-07-06T12:04:41;102357.59;;;22.68;39.41
59103;BME280;43999;51.660;5.616;2022-07-06T12:07:19;102358.56;;;22.67;39.71
59103;BME280;43999;51.660;5.616;2022-07-06T12:09:47;102356.25;;;22.63;39.94
59103;BME280;43999;51.660;5.616;2022-07-06T12:12:14;102352.88;;;22.61;39.92
59103;BME280;43999;51.660;5.616;2022-07-06T12:14:44;102342.19;;;22.61;38.71
59103;BME280;43999;51.660;5.616;2022-07-06T12:17:13;102341.56;;;22.57;38.60
59103;BME280;43999;51.660;5.616;2022-07-06T12:19:42;102340.97;;;22.53;38.79
59103;BME280;43999;51.660;5.616;2022-07-06T12:22:10;102332.75;;;22.45;39.19
59103;BME280;43999;51.660;5.616;2022-07-06T12:24:42;102333.22;;;22.50;40.13
59103;BME280;43999;51.660;5.616;2022-07-06T12:27:14;102330.88;;;22.57;39.77
59103;BME280;43999;51.660;5.616;2022-07-06T12:29:44;102330.75;;;22.59;39.27
59103;BME280;43999;51.660;5.616;2022-07-06T12:32:20;102333.31;;;22.60;40.14
59103;BME280;43999;51.660;5.616;2022-07-06T12:35:08;102335.88;;;22.50;39.47
59103;BME280;43999;51.660;5.616;2022-07-06T12:37:36;102331.28;;;22.41;39.91
59103;BME280;43999;51.660;5.616;2022-07-06T12:40:14;102335.31;;;22.47;40.14
59103;BME280;43999;51.660;5.616;2022-07-06T12:42:47;102329.72;;;22.50;39.93
59103;BME280;43999;51.660;5.616;2022-07-06T12:45:16;102323.00;;;22.55;40.17
59103;BME280;43999;51.660;5.616;2022-07-06T12:48:04;102336.34;;;22.67;40.57
59103;BME280;43999;51.660;5.616;2022-07-06T12:50:38;102321.84;;;22.81;39.47
59103;BME280;43999;51.660;5.616;2022-07-06T12:53:06;102319.06;;;23.03;39.13
59103;BME280;43999;51.660;5.616;2022-07-06T12:56:11;102330.75;;;23.35;38.69
59103;BME280;43999;51.660;5.616;2022-07-06T12:58:39;102321.53;;;23.49;37.90
59103;BME280;43999;51.660;5.616;2022-07-06T13:01:06;102330.00;;;23.54;38.03
59103;BME280;43999;51.660;5.616;2022-07-06T13:03:40;102325.63;;;23.74;37.58
59103;BME280;43999;51.660;5.616;2022-07-06T13:06:08;102324.34;;;23.99;36.46
59103;BME280;43999;51.660;5.616;2022-07-06T13:08:35;102318.72;;;24.02;36.75